Time;durP1;ratioP1;P1;durP2;ratioP2;P2;SDS_P1;SDS_P2;PMS_P1;PMS_P2;Temp;Humidity;BMP_temperature;BMP_pressure;BME280_temperature;BME280_humidity;BME280_pressure;Samples;Min_cycle;Max_cycle;Signal;HPM_P1;HPM_P2
2021/11/23 00:00:08;;;;;;;;;16.25;15.75;;;;;18.45;38.05;101950.78;5022535;28;45496;-80
2021/11/23 00:02:33;;;;;;;;;16.00;15.00;;;;;18.41;38.45;101951.66;5023654;28;45241;-79
2021/11/23 00:04:59;;;;;;;;;19.50;17.00;;;;;18.37;37.92;101941.97;5042278;28;45217;-80
2021/11/23 00:07:24;;;;;;;;;16.50;12.25;;;;;18.36;38.53;101941.09;5059866;28;57085;-80
2021/11/23 00:09:49;;;;;;;;;12.75;12.00;;;;;18.38;37.66;101934.94;5058747;28;50740;-80
2021/11/23 00:12:15;;;;;;;;;18.25;17.25;;;;;18.35;37.95;101935.84;5052517;28;59885;-80
2021/11/23 00:14:40;;;;;;;;;16.50;15.25;;;;;18.33;37.47;101945.50;4998334;27;1241143;-80
2021/11/23 00:17:06;;;;;;;;;15.50;15.00;;;;;18.24;38.11;101940.25;5059866;28;49435;-80
2021/11/23 00:19:31;;;;;;;;;18.00;15.25;;;;;18.22;37.96;101936.75;5043176;28;45294;-80
2021/11/23 00:21:57;;;;;;;;;16.75;15.75;;;;;18.21;38.14;101935.00;5043370;28;45197;-80
2021/11/23 00:24:22;;;;;;;;;17.25;16.00;;;;;18.21;38.36;101933.22;5026594;28;45475;-80
2021/11/23 00:26:48;;;;;;;;;19.75;17.00;;;;;18.23;38.28;101931.44;5059914;28;45364;-80
2021/11/23 00:29:18;;;;;;;;;16.50;15.00;;;;;18.24;38.00;101942.91;5059263;28;62723;-79
2021/11/23 00:31:44;;;;;;;;;14.50;13.50;;;;;18.23;37.62;101942.03;5060368;28;45169;-79
2021/11/23 00:34:09;;;;;;;;;13.50;13.25;;;;;18.22;37.85;101942.03;5060457;28;61776;-79
2021/11/23 00:36:35;;;;;;;;;14.25;14.25;;;;;18.21;38.33;101938.50;5042839;28;48083;-79
2021/11/23 00:39:00;;;;;;;;;16.25;14.75;;;;;18.23;37.79;101943.78;5042477;28;67872;-80
2021/11/23 00:41:25;;;;;;;;;16.00;14.75;;;;;18.23;37.86;101938.50;5060024;28;45258;-80
2021/11/23 00:43:51;;;;;;;;;16.50;15.25;;;;;18.21;38.61;101938.50;5042509;28;60946;-79
2021/11/23 00:46:17;;;;;;;;;14.25;14.00;;;;;18.22;38.54;101934.97;5059081;28;59577;-79
2021/11/23 00:48:42;;;;;;;;;14.25;12.50;;;;;18.25;38.09;101942.91;5059623;28;45385;-79
2021/11/23 00:51:07;;;;;;;;;14.25;14.25;;;;;18.27;37.53;101937.63;5059636;28;46965;-79
2021/11/23 00:53:33;;;;;;;;;14.00;14.00;;;;;18.23;38.04;101934.09;5058733;28;65628;-79
2021/11/23 00:56:02;;;;;;;;;13.75;13.75;;;;;18.23;37.45;101934.09;5059307;28;47011;-79
2021/11/23 00:58:28;;;;;;;;;15.75;14.75;;;;;18.22;37.65;101936.75;5060965;28;45272;-80
2021/11/23 01:00:53;;;;;;;;;15.00;14.00;;;;;18.23;38.23;101936.72;5059536;28;45319;-79
2021/11/23 01:03:19;;;;;;;;;14.25;12.25;;;;;18.21;37.84;101940.28;5058750;28;55935;-79
2021/11/23 01:05:46;;;;;;;;;14.00;11.75;;;;;18.19;38.27;101942.06;5059276;28;45288;-79
2021/11/23 01:08:12;;;;;;;;;13.75;12.75;;;;;18.19;37.84;101936.75;5059655;28;45309;-79
2021/11/23 01:10:38;;;;;;;;;16.25;16.00;;;;;18.20;38.79;101938.53;5059181;28;45386;-79
2021/11/23 01:13:03;;;;;;;;;12.50;12.50;;;;;18.21;38.40;101943.78;5059216;28;49484;-79
2021/11/23 01:15:28;;;;;;;;;16.75;14.75;;;;;18.20;37.90;101942.03;5058551;28;59308;-79
2021/11/23 01:17:54;;;;;;;;;14.50;13.50;;;;;18.19;38.28;101956.13;5058559;28;51314;-78
2021/11/23 01:20:19;;;;;;;;;15.00;13.00;;;;;18.19;38.17;101949.97;5059318;28;45484;-77
2021/11/23 01:22:45;;;;;;;;;14.75;13.50;;;;;18.20;38.03;101941.16;5042498;28;46935;-77
2021/11/23 01:25:10;;;;;;;;;13.75;12.75;;;;;18.20;38.40;101944.69;5042467;28;45657;-77
2021/11/23 01:27:36;;;;;;;;;12.50;12.50;;;;;18.16;37.93;101942.94;5059162;28;45259;-77
2021/11/23 01:30:03;;;;;;;;;13.75;12.00;;;;;18.13;37.88;101953.50;5060193;28;55399;-77
2021/11/23 01:32:29;;;;;;;;;18.25;17.50;;;;;18.12;38.06;101940.31;5058816;28;45469;-77
2021/11/23 01:34:54;;;;;;;;;15.25;14.50;;;;;18.11;38.27;101936.78;5058661;28;58338;-77
2021/11/23 01:37:19;;;;;;;;;16.00;15.75;;;;;18.11;37.75;101946.47;5058461;28;63278;-77
2021/11/23 01:39:45;;;;;;;;;15.00;13.00;;;;;18.11;38.62;101949.13;5058587;28;55979;-77
2021/11/23 01:42:10;;;;;;;;;15.75;15.00;;;;;18.12;38.41;101945.59;5058327;28;58858;-77
2021/11/23 01:44:36;;;;;;;;;15.00;15.00;;;;;18.15;38.37;101953.50;5058713;28;47310;-79
2021/11/23 01:47:02;;;;;;;;;16.25;14.00;;;;;18.15;38.16;101946.44;5060140;28;45146;-79
2021/11/23 01:49:27;;;;;;;;;12.75;12.00;;;;;18.14;38.01;101939.41;5059147;28;45970;-79
2021/11/23 01:51:52;;;;;;;;;12.00;11.00;;;;;18.15;38.52;101943.81;5058230;28;64234;-79
2021/11/23 01:54:18;;;;;;;;;13.25;12.25;;;;;18.16;37.82;101947.34;5057905;28;68293;-79
2021/11/23 01:56:43;;;;;;;;;15.50;14.50;;;;;18.13;38.06;101950.84;5058631;28;45333;-77
2021/11/23 01:59:08;;;;;;;;;14.50;14.50;;;;;18.11;38.31;101949.13;5059120;28;45414;-77
2021/11/23 02:01:34;;;;;;;;;16.00;14.50;;;;;18.11;38.47;101950.00;5058030;28;61345;-77
2021/11/23 02:03:59;;;;;;;;;14.25;12.25;;;;;18.08;38.63;101953.53;5057643;28;67646;-77
2021/11/23 02:06:25;;;;;;;;;14.00;12.50;;;;;18.10;38.77;101952.66;5041925;28;45426;-77
2021/11/23 02:08:50;;;;;;;;;12.50;12.00;;;;;18.10;38.00;101950.00;5059631;28;56217;-77
2021/11/23 02:11:16;;;;;;;;;16.00;15.75;;;;;18.09;38.31;101957.06;5041000;28;61529;-77
2021/11/23 02:13:41;;;;;;;;;14.25;14.00;;;;;18.09;38.21;101951.78;5058222;28;53516;-77
2021/11/23 02:16:06;;;;;;;;;14.00;13.25;;;;;18.02;38.31;101957.94;5058932;28;58763;-77
2021/11/23 02:18:32;;;;;;;;;13.00;12.50;;;;;17.99;37.73;101948.28;5058361;28;45378;-77
2021/11/23 02:20:58;;;;;;;;;14.50;14.00;;;;;17.97;38.00;101957.94;5058497;28;45413;-77
2021/11/23 02:23:23;;;;;;;;;14.50;12.25;;;;;17.97;38.13;101951.78;5058426;28;47081;-79
2021/11/23 02:25:49;;;;;;;;;12.00;12.00;;;;;17.99;38.41;101950.91;5058288;28;45311;-78
2021/11/23 02:28:14;;;;;;;;;15.00;13.25;;;;;18.00;38.21;101955.31;5041801;28;45620;-78
2021/11/23 02:30:44;;;;;;;;;16.25;15.25;;;;;18.00;37.72;101960.59;5041528;28;45614;-78
2021/11/23 02:33:09;;;;;;;;;18.75;16.25;;;;;17.97;37.96;101954.41;5059235;28;45460;-78
2021/11/23 02:35:35;;;;;;;;;17.50;13.25;;;;;17.91;38.10;101952.69;5041368;28;45456;-78
2021/11/23 02:38:01;;;;;;;;;16.00;13.75;;;;;17.89;38.22;101941.22;5041608;28;45395;-78
2021/11/23 02:40:26;;;;;;;;;14.00;12.50;;;;;17.91;38.04;101944.75;5058149;28;45477;-78
2021/11/23 02:42:52;;;;;;;;;12.50;10.75;;;;;17.91;38.42;101934.19;5041271;28;47051;-78
2021/11/23 02:45:19;;;;;;;;;17.50;14.50;;;;;17.92;37.44;101937.72;5041343;28;46078;-78
2021/11/23 02:47:48;;;;;;;;;15.75;13.00;;;;;17.89;37.76;101928.00;5057932;28;45271;-78
2021/11/23 02:50:14;;;;;;;;;13.75;13.75;;;;;17.89;38.22;101929.78;5041389;28;45512;-78
2021/11/23 02:52:42;;;;;;;;;15.00;14.75;;;;;17.90;37.95;101937.72;5041456;28;45441;-78
2021/11/23 02:55:08;;;;;;;;;17.50;17.50;;;;;17.84;37.73;101934.22;5059946;28;45263;-78
2021/11/23 02:57:33;;;;;;;;;14.50;13.50;;;;;17.85;38.52;101922.75;5044822;28;45282;-78
2021/11/23 02:59:59;;;;;;;;;17.25;14.50;;;;;17.85;37.98;101926.28;5024706;28;45548;-78
2021/11/23 03:02:24;;;;;;;;;16.25;15.25;;;;;17.83;37.82;101935.97;5054374;28;46228;-78
2021/11/23 03:04:54;;;;;;;;;14.50;12.50;;;;;17.84;37.99;101932.44;5061321;28;45320;-78
2021/11/23 03:07:20;;;;;;;;;13.50;11.50;;;;;17.82;37.66;101928.94;5061426;28;45402;-78
2021/11/23 03:09:45;;;;;;;;;13.25;12.50;;;;;17.79;37.54;101937.72;5044316;28;45351;-78
2021/11/23 03:12:19;;;;;;;;;11.50;11.50;;;;;17.80;37.84;101928.03;5044286;28;47109;-78
2021/11/23 03:14:45;;;;;;;;;8.75;8.75;;;;;17.77;37.85;101930.69;5045255;28;45422;-78
2021/11/23 03:17:11;;;;;;;;;12.75;11.25;;;;;17.74;37.69;101922.78;5060927;28;45350;-78
2021/11/23 03:19:36;;;;;;;;;15.75;14.25;;;;;17.71;37.10;101928.03;5061599;28;45449;-78
2021/11/23 03:22:02;;;;;;;;;14.50;14.00;;;;;17.69;37.35;101935.94;5042212;28;47246;-78
2021/11/23 03:24:29;;;;;;;;;11.25;11.25;;;;;17.66;37.39;101921.88;5053015;28;45296;-78
2021/11/23 03:26:55;;;;;;;;;14.25;14.00;;;;;17.61;37.90;101915.72;5041022;28;45335;-78
2021/11/23 03:29:20;;;;;;;;;15.25;12.00;;;;;17.57;37.89;101919.25;5007868;28;45275;-78
2021/11/23 03:31:45;;;;;;;;;14.00;11.75;;;;;17.56;37.50;101915.72;5040150;28;60962;-78
2021/11/23 03:34:11;;;;;;;;;15.75;13.25;;;;;17.56;37.48;101917.50;5040732;28;45173;-78
2021/11/23 03:36:39;;;;;;;;;15.25;11.75;;;;;17.52;37.79;101914.84;5057561;28;45774;-78
2021/11/23 03:39:06;;;;;;;;;14.50;12.75;;;;;17.52;37.96;101912.19;5040966;28;45288;-77
2021/11/23 03:41:31;;;;;;;;;10.50;10.50;;;;;17.47;37.66;101921.00;5040548;28;46585;-77
2021/11/23 03:43:57;;;;;;;;;14.50;11.50;;;;;17.46;37.61;101912.22;5024151;28;45657;-77
2021/11/23 03:46:22;;;;;;;;;13.50;13.00;;;;;17.47;37.40;101923.66;5040597;28;45209;-78
2021/11/23 03:48:48;;;;;;;;;12.25;12.25;;;;;17.42;37.16;101907.81;5023693;28;47438;-77
2021/11/23 03:51:13;;;;;;;;;16.75;15.50;;;;;17.43;37.50;101903.41;5040466;28;46044;-77
2021/11/23 03:53:38;;;;;;;;;14.25;12.25;;;;;17.43;37.74;101911.31;5049066;28;45240;-77
2021/11/23 03:56:04;;;;;;;;;12.50;11.00;;;;;17.40;37.80;101901.66;5060208;28;51922;-77
2021/11/23 03:58:29;;;;;;;;;12.00;12.00;;;;;17.41;37.30;101898.13;5060706;28;45496;-78
2021/11/23 04:00:55;;;;;;;;;16.25;14.00;;;;;17.40;37.45;101896.38;5059634;28;67960;-78
2021/11/23 04:03:20;;;;;;;;;12.75;12.25;;;;;17.37;37.39;101893.72;5043279;28;45292;-78
2021/11/23 04:05:46;;;;;;;;;12.75;12.75;;;;;17.45;37.85;101906.91;5041774;28;62826;-78
2021/11/23 04:08:11;;;;;;;;;14.25;12.75;;;;;17.47;37.58;101911.34;5060394;28;45274;-78
2021/11/23 04:10:37;;;;;;;;;14.75;11.25;;;;;17.50;37.68;101913.97;5043178;28;51655;-78
2021/11/23 04:13:03;;;;;;;;;13.25;11.75;;;;;17.52;37.54;101909.56;5060500;28;45500;-78
2021/11/23 04:15:28;;;;;;;;;11.75;11.00;;;;;17.55;37.58;101913.97;5043395;28;45361;-78
2021/11/23 04:17:53;;;;;;;;;12.50;11.50;;;;;17.57;37.21;101916.59;5059536;28;58304;-78
2021/11/23 04:20:19;;;;;;;;;11.25;11.25;;;;;17.57;37.20;101920.13;5060074;28;46983;-78
2021/11/23 04:22:44;;;;;;;;;11.00;11.00;;;;;17.61;37.66;101915.72;5042604;28;66130;-77
2021/11/23 04:25:10;;;;;;;;;15.25;12.75;;;;;17.60;36.95;101919.22;5043420;28;45341;-77
2021/11/23 04:27:35;;;;;;;;;13.00;10.25;;;;;17.57;37.61;101919.25;5060243;28;45600;-77
2021/11/23 04:30:01;;;;;;;;;12.00;9.50;;;;;17.56;37.20;101920.13;5043458;28;46360;-77
2021/11/23 04:32:27;;;;;;;;;15.50;13.25;;;;;17.53;37.41;101913.94;5059918;28;45617;-77
2021/11/23 04:34:52;;;;;;;;;15.25;13.25;;;;;17.49;37.19;101912.22;5060254;28;45382;-78
2021/11/23 04:37:17;;;;;;;;;14.00;13.25;;;;;17.48;37.13;101915.72;5042455;28;66971;-78
2021/11/23 04:39:43;;;;;;;;;14.00;10.75;;;;;17.46;37.21;101909.59;5042288;28;68597;-78
2021/11/23 04:42:08;;;;;;;;;13.25;13.00;;;;;17.43;37.05;101912.19;5060005;28;45248;-78
2021/11/23 04:44:34;;;;;;;;;16.00;13.25;;;;;17.42;37.59;101915.72;5059657;28;52011;-78
2021/11/23 04:46:59;;;;;;;;;14.00;12.50;;;;;17.46;37.32;101916.59;5059588;28;45233;-78
2021/11/23 04:49:25;;;;;;;;;13.25;13.00;;;;;17.46;37.58;101912.22;5041796;28;71354;-78
2021/11/23 04:51:50;;;;;;;;;14.50;13.50;;;;;17.44;36.77;101919.22;5059602;28;45347;-78
2021/11/23 04:54:15;;;;;;;;;14.50;13.50;;;;;17.40;36.86;101920.13;5061093;28;45216;-78
2021/11/23 04:56:41;;;;;;;;;14.25;14.00;;;;;17.41;37.34;101924.53;5058742;28;67658;-78
2021/11/23 04:59:06;;;;;;;;;12.50;12.50;;;;;17.42;37.08;101926.28;5058549;28;69954;-78
2021/11/23 05:01:32;;;;;;;;;11.75;11.00;;;;;17.44;37.19;101916.59;5060557;28;45246;-78
2021/11/23 05:03:57;;;;;;;;;12.00;10.25;;;;;17.44;36.80;101919.22;5059977;28;63453;-79
2021/11/23 05:06:26;;;;;;;;;13.75;11.50;;;;;17.43;36.86;101913.97;5041981;28;59962;-80
2021/11/23 05:08:51;;;;;;;;;11.00;9.50;;;;;17.42;36.88;101925.41;5059731;28;45359;-78
2021/11/23 05:11:17;;;;;;;;;11.75;10.50;;;;;17.40;37.22;101912.22;5059439;28;70349;-79
2021/11/23 05:13:43;;;;;;;;;12.50;10.75;;;;;17.43;37.62;101919.25;5060795;28;45236;-78
2021/11/23 05:16:09;;;;;;;;;11.75;11.75;;;;;17.43;36.71;101914.84;5038786;28;45578;-79
2021/11/23 05:18:34;;;;;;;;;9.00;9.00;;;;;17.46;37.94;101912.22;5058061;28;61343;-78
2021/11/23 05:21:00;;;;;;;;;13.75;11.00;;;;;17.47;37.06;101908.69;5041942;28;52148;-78
2021/11/23 05:23:25;;;;;;;;;13.00;11.75;;;;;17.46;37.23;101917.50;5022597;28;45745;-78
2021/11/23 05:25:50;;;;;;;;;10.00;10.00;;;;;17.48;37.48;101923.66;5057487;28;63153;-77
2021/11/23 05:28:16;;;;;;;;;11.75;11.00;;;;;17.50;37.24;101919.25;5059018;28;47955;-79
2021/11/23 05:30:41;;;;;;;;;12.25;12.00;;;;;17.51;36.60;101921.00;5058868;28;45255;-77
2021/11/23 05:33:07;;;;;;;;;10.00;10.00;;;;;17.50;36.46;101926.28;5042353;28;45388;-78
2021/11/23 05:35:33;;;;;;;;;12.25;11.00;;;;;17.48;36.55;101917.50;5059065;28;45477;-78
2021/11/23 05:37:58;;;;;;;;;12.25;10.75;;;;;17.45;36.19;101931.53;5042044;28;47387;-79
2021/11/23 05:40:24;;;;;;;;;13.00;13.00;;;;;17.44;35.83;101948.25;5058807;28;48554;-78
2021/11/23 05:42:49;;;;;;;;;10.00;9.50;;;;;17.42;36.49;101938.59;5059252;28;45335;-79
2021/11/23 05:45:14;;;;;;;;;15.75;13.25;;;;;17.36;36.90;101936.81;5058648;28;50484;-78
2021/11/23 05:47:41;;;;;;;;;11.25;11.00;;;;;17.32;36.50;101932.44;5057846;28;71950;-79
2021/11/23 05:50:07;;;;;;;;;11.25;9.50;;;;;17.32;37.04;101940.34;5058968;28;45316;-78
2021/11/23 05:52:32;;;;;;;;;11.00;10.00;;;;;17.37;36.89;101943.84;5060662;28;45318;-79
2021/11/23 05:54:58;;;;;;;;;6.25;6.00;;;;;17.42;37.86;101949.16;5059149;28;66202;-77
2021/11/23 05:57:23;;;;;;;;;10.25;9.25;;;;;17.58;38.83;101936.84;5058657;28;47467;-78
2021/11/23 05:59:48;;;;;;;;;9.75;7.75;;;;;17.79;39.36;101955.31;5061492;28;51192;-82
2021/11/23 06:02:14;;;;;;;;;7.75;7.75;;;;;18.02;39.89;101952.66;5059193;28;45308;-80
2021/11/23 06:04:47;;;;;;;;;6.50;6.50;;;;;18.22;39.56;101948.19;5058522;28;45185;-81
2021/11/23 06:07:15;;;;;;;;;8.50;6.00;;;;;18.39;40.04;101939.34;5058726;28;45373;-80
2021/11/23 06:09:41;;;;;;;;;9.00;7.75;;;;;18.59;40.44;101950.69;5038435;28;45209;-79
2021/11/23 06:12:10;;;;;;;;;6.25;6.00;;;;;18.74;40.77;101949.78;5043816;28;44774;-77
2021/11/23 06:14:36;;;;;;;;;6.00;6.00;;;;;18.92;41.30;101957.59;5058482;28;45452;-74
2021/11/23 06:17:06;;;;;;;;;9.75;8.00;;;;;19.08;42.26;101953.09;5058094;28;47293;-75
2021/11/23 06:19:32;;;;;;;;;11.25;10.00;;;;;19.22;41.80;101947.75;5059934;28;45445;-73
2021/11/23 06:21:57;;;;;;;;;7.50;6.75;;;;;19.38;41.42;101946.75;5059758;28;45915;-74
2021/11/23 06:24:23;;;;;;;;;8.50;8.00;;;;;19.57;41.30;101950.13;5041291;28;58585;-75
2021/11/23 06:26:48;;;;;;;;;8.75;6.25;;;;;19.73;41.19;101943.81;5059124;28;46263;-73
2021/11/23 06:29:13;;;;;;;;;7.00;5.00;;;;;19.86;41.15;101948.09;5059603;28;45330;-73
2021/11/23 06:31:39;;;;;;;;;7.50;7.00;;;;;19.96;41.09;101954.16;5064990;28;45757;-73
2021/11/23 06:34:08;;;;;;;;;6.25;5.75;;;;;20.05;41.44;101949.66;5064376;28;49778;-73
2021/11/23 06:36:34;;;;;;;;;8.00;6.00;;;;;20.12;41.13;101953.13;5061748;28;47417;-75
2021/11/23 06:39:01;;;;;;;;;6.00;6.00;;;;;20.19;41.02;101957.47;5061876;28;45221;-75
2021/11/23 06:41:26;;;;;;;;;7.50;7.00;;;;;20.24;40.98;101952.09;5063321;28;45251;-74
2021/11/23 06:43:51;;;;;;;;;7.00;5.00;;;;;20.28;41.27;101959.13;5061245;28;62014;-75
2021/11/23 06:46:17;;;;;;;;;10.50;8.00;;;;;20.31;41.11;101961.72;5062244;28;58897;-72
2021/11/23 06:48:42;;;;;;;;;11.00;6.00;;;;;20.33;41.33;101968.78;5062722;28;46848;-76
2021/11/23 06:51:08;;;;;;;;;8.00;7.00;;;;;20.36;41.07;101969.66;5061471;28;45406;-74
2021/11/23 06:53:33;;;;;;;;;12.00;9.25;;;;;20.38;41.19;101978.47;5062213;28;55980;-73
2021/11/23 06:55:59;;;;;;;;;9.00;7.00;;;;;20.39;41.05;101972.25;5044591;28;48176;-72
2021/11/23 06:58:24;;;;;;;;;6.25;6.25;;;;;20.41;40.71;101973.09;5044659;28;45343;-75
2021/11/23 07:00:50;;;;;;;;;8.25;7.25;;;;;20.41;40.78;101986.38;5045299;28;45331;-73
2021/11/23 07:03:18;;;;;;;;;10.25;7.75;;;;;20.44;40.73;101989.03;5044238;28;45374;-72
2021/11/23 07:05:49;;;;;;;;;10.25;7.00;;;;;20.44;40.77;101994.34;5044625;28;47265;-74
2021/11/23 07:08:14;;;;;;;;;10.00;8.75;;;;;20.42;40.60;101989.03;5046394;28;45494;-74
2021/11/23 07:10:41;;;;;;;;;8.25;7.75;;;;;20.45;40.32;101993.44;5062499;28;45444;-74
2021/11/23 07:13:06;;;;;;;;;11.00;8.00;;;;;20.42;40.41;101985.50;5062520;28;45434;-73
2021/11/23 07:15:32;;;;;;;;;10.00;8.25;;;;;20.44;40.26;101992.56;5061408;28;70396;-73
2021/11/23 07:17:57;;;;;;;;;9.00;8.00;;;;;20.44;40.13;101984.59;5062064;28;45417;-74
2021/11/23 07:20:23;;;;;;;;;8.00;7.00;;;;;20.44;40.55;101986.38;5062519;28;45288;-73
2021/11/23 07:22:48;;;;;;;;;7.25;7.25;;;;;20.44;40.49;101986.38;5062899;28;45226;-72
2021/11/23 07:25:20;;;;;;;;;11.00;8.25;;;;;20.39;40.52;101977.56;5063034;28;45411;-72
2021/11/23 07:27:45;;;;;;;;;7.75;6.75;;;;;20.42;40.48;101988.16;5061388;28;45382;-73
2021/11/23 07:30:11;;;;;;;;;10.75;10.75;;;;;20.42;40.23;101988.16;5044395;28;45304;-72
2021/11/23 07:32:37;;;;;;;;;7.50;6.50;;;;;20.42;40.06;102004.94;5061919;28;45458;-73
2021/11/23 07:35:03;;;;;;;;;7.25;7.25;;;;;20.42;40.48;102012.03;5061803;28;52457;-73
2021/11/23 07:37:36;;;;;;;;;11.75;7.00;;;;;20.42;40.59;102014.66;5069502;28;45240;-73
2021/11/23 07:40:03;;;;;;;;;8.75;7.00;;;;;20.42;40.48;102012.91;5027310;28;45337;-73
2021/11/23 07:42:29;;;;;;;;;8.00;6.50;;;;;20.43;40.17;102017.34;5040865;28;46248;-73
2021/11/23 07:44:54;;;;;;;;;5.75;5.75;;;;;20.42;40.34;102020.84;5040962;28;68312;-72
2021/11/23 07:47:19;;;;;;;;;9.50;6.50;;;;;20.44;40.13;102026.16;5023766;28;45503;-72
2021/11/23 07:49:45;;;;;;;;;10.25;7.50;;;;;20.42;40.35;102025.28;5040542;28;45948;-72
2021/11/23 07:52:14;;;;;;;;;6.50;6.50;;;;;20.43;40.13;102034.97;5040165;28;58959;-73
2021/11/23 07:54:39;;;;;;;;;6.50;6.00;;;;;20.43;40.28;102037.63;5055530;28;45453;-74
2021/11/23 07:57:05;;;;;;;;;7.50;7.00;;;;;20.44;40.03;102036.78;5060298;28;45327;-74
2021/11/23 07:59:33;;;;;;;;;8.75;7.25;;;;;20.43;39.75;102041.19;5043531;28;45334;-76
2021/11/23 08:01:58;;;;;;;;;7.00;6.50;;;;;20.42;39.83;102042.06;5060181;28;45359;-74
2021/11/23 08:04:24;;;;;;;;;4.50;4.00;;;;;20.44;39.86;102044.72;5026813;28;47295;-75
2021/11/23 08:06:49;;;;;;;;;5.50;5.50;;;;;20.44;39.87;102045.59;5061441;28;45327;-75
2021/11/23 08:09:15;;;;;;;;;7.00;7.00;;;;;20.43;39.71;102049.16;5076834;28;45393;-75
2021/11/23 08:11:40;;;;;;;;;7.00;6.50;;;;;20.42;39.60;102042.06;5049624;28;45229;-76
2021/11/23 08:14:06;;;;;;;;;10.00;8.00;;;;;20.44;39.60;102047.38;5061426;28;46039;-76
2021/11/23 08:16:31;;;;;;;;;7.75;6.75;;;;;20.43;39.09;102045.59;5058954;28;68906;-73
2021/11/23 08:18:56;;;;;;;;;8.75;5.50;;;;;20.41;39.50;102055.31;5059646;28;48542;-75
2021/11/23 08:21:22;;;;;;;;;7.00;7.00;;;;;20.42;39.50;102059.75;5042698;28;57772;-75
2021/11/23 08:23:47;;;;;;;;;6.00;6.00;;;;;20.42;39.19;102062.41;5060002;28;45393;-74
2021/11/23 08:26:13;;;;;;;;;9.25;8.25;;;;;20.43;39.30;102065.06;5060061;28;45429;-74
2021/11/23 08:28:38;;;;;;;;;7.00;7.00;;;;;20.43;39.15;102056.19;5043126;28;45446;-74
2021/11/23 08:31:04;;;;;;;;;8.00;8.00;;;;;20.44;39.42;102063.28;5058969;28;62601;-74
2021/11/23 08:33:29;;;;;;;;;5.50;5.00;;;;;20.43;39.33;102057.09;5043015;28;48025;-74
2021/11/23 08:35:55;;;;;;;;;7.75;6.25;;;;;20.44;39.15;102060.63;5059865;28;45361;-74
2021/11/23 08:38:20;;;;;;;;;6.50;6.50;;;;;20.45;39.16;102057.09;5042757;28;45440;-72
2021/11/23 08:40:46;;;;;;;;;7.25;6.00;;;;;20.44;38.96;102060.63;5059909;28;45655;-74
2021/11/23 08:43:11;;;;;;;;;7.00;5.50;;;;;20.47;39.37;102061.47;5059617;28;45500;-74
2021/11/23 08:45:37;;;;;;;;;5.00;5.00;;;;;20.52;39.21;102062.31;5059711;28;45287;-74
2021/11/23 08:48:03;;;;;;;;;7.50;7.00;;;;;20.55;39.02;102050.78;5059149;28;45408;-72
2021/11/23 08:50:28;;;;;;;;;8.75;6.75;;;;;20.59;39.11;102055.19;5042995;28;45650;-73
2021/11/23 08:52:57;;;;;;;;;6.00;6.00;;;;;20.64;38.68;102057.75;5041551;28;46112;-71
2021/11/23 08:55:23;;;;;;;;;6.00;5.75;;;;;20.67;38.67;102049.75;5060987;28;45489;-73
2021/11/23 08:57:48;;;;;;;;;9.50;5.75;;;;;20.69;38.66;102056.81;5054026;28;45421;-73
2021/11/23 09:00:18;;;;;;;;;6.50;6.00;;;;;20.72;38.52;102050.59;5059520;28;45385;-75
2021/11/23 09:02:47;;;;;;;;;4.25;3.75;;;;;20.75;38.40;102059.38;5059026;28;48355;-75
2021/11/23 09:05:12;;;;;;;;;5.00;5.00;;;;;20.77;38.32;102057.59;5042935;28;45254;-74
2021/11/23 09:07:38;;;;;;;;;5.00;4.00;;;;;20.81;38.43;102069.94;5043067;28;45408;-74
2021/11/23 09:10:04;;;;;;;;;7.00;6.00;;;;;20.84;38.22;102059.25;5045602;28;45315;-74
2021/11/23 09:12:30;;;;;;;;;7.00;5.75;;;;;20.87;38.27;102074.28;5071883;28;46561;-74
2021/11/23 09:14:55;;;;;;;;;11.25;6.25;;;;;20.91;38.31;102064.50;5059280;28;45366;-71
2021/11/23 09:17:21;;;;;;;;;7.50;6.25;;;;;20.93;38.24;102060.94;5058818;28;45816;-73
2021/11/23 09:19:46;;;;;;;;;4.00;4.00;;;;;20.96;38.15;102068.00;5059139;28;45310;-74
2021/11/23 09:22:12;;;;;;;;;6.00;5.00;;;;;20.99;38.05;102067.94;5060125;28;46449;-74
2021/11/23 09:24:37;;;;;;;;;4.75;4.25;;;;;21.00;37.73;102067.03;5059079;28;45386;-74
2021/11/23 09:27:03;;;;;;;;;4.50;4.25;;;;;21.05;37.81;102076.72;5059026;28;45327;-74
2021/11/23 09:29:28;;;;;;;;;7.00;6.00;;;;;21.08;37.52;102089.06;5058871;28;45978;-73
2021/11/23 09:31:53;;;;;;;;;6.25;6.25;;;;;21.10;37.51;102073.97;5058293;28;58297;-75
2021/11/23 09:34:21;;;;;;;;;7.50;5.75;;;;;21.13;37.53;102074.84;5041959;28;45334;-73
2021/11/23 09:36:47;;;;;;;;;7.25;6.25;;;;;21.14;37.25;102065.97;5042514;28;45254;-74
2021/11/23 09:39:13;;;;;;;;;7.00;5.00;;;;;21.16;37.78;102076.56;5058940;28;45336;-72
2021/11/23 09:41:41;;;;;;;;;5.00;4.50;;;;;21.14;37.49;102070.41;5036287;28;47237;-74
2021/11/23 09:44:06;;;;;;;;;7.50;6.00;;;;;21.16;37.48;102077.44;5059008;28;45283;-74
2021/11/23 09:46:32;;;;;;;;;4.00;4.00;;;;;21.16;37.32;102076.56;5058601;28;45489;-72
2021/11/23 09:48:58;;;;;;;;;4.00;2.75;;;;;21.15;37.46;102088.97;5025449;28;45256;-74
2021/11/23 09:51:25;;;;;;;;;4.00;3.50;;;;;21.14;37.27;102075.72;5041560;28;48183;-73
2021/11/23 09:53:54;;;;;;;;;6.00;5.00;;;;;21.11;37.76;102076.66;5058758;28;45675;-73
2021/11/23 09:56:22;;;;;;;;;6.50;6.00;;;;;21.11;37.36;102075.75;5058455;28;45260;-74
2021/11/23 09:58:54;;;;;;;;;4.50;3.75;;;;;21.12;37.30;102082.84;5041860;28;45431;-73
2021/11/23 10:01:20;;;;;;;;;9.75;7.25;;;;;21.10;37.66;102074.88;5042464;28;47354;-73
2021/11/23 10:03:45;;;;;;;;;5.00;4.00;;;;;21.12;37.40;102074.88;5059934;28;45371;-74
2021/11/23 10:06:13;;;;;;;;;4.25;4.25;;;;;21.11;37.76;102081.03;5061581;28;59577;-75
2021/11/23 10:08:40;;;;;;;;;4.00;3.00;;;;;21.12;37.57;102069.56;5062303;28;45615;-75
2021/11/23 10:11:06;;;;;;;;;4.75;4.00;;;;;21.12;37.87;102062.47;5061616;28;45308;-75
2021/11/23 10:13:44;;;;;;;;;6.25;4.75;;;;;21.14;37.77;102065.97;5045414;28;45218;-74
2021/11/23 10:16:10;;;;;;;;;5.25;5.25;;;;;21.13;37.73;102066.00;5063591;28;45350;-75
2021/11/23 10:18:35;;;;;;;;;4.00;4.00;;;;;21.11;37.70;102060.72;5062341;28;45362;-75
2021/11/23 10:21:02;;;;;;;;;5.25;5.00;;;;;21.09;37.45;102062.50;5045977;28;47073;-76
2021/11/23 10:23:29;;;;;;;;;5.00;5.00;;;;;21.08;37.60;102059.84;5062974;28;45446;-75
2021/11/23 10:26:13;;;;;;;;;3.00;3.00;;;;;21.08;37.45;102050.13;5062410;28;45323;-75
2021/11/23 10:28:53;;;;;;;;;6.25;4.25;;;;;21.09;37.34;102058.97;5062477;28;45485;-74
2021/11/23 10:31:19;;;;;;;;;3.50;2.00;;;;;21.09;37.30;102046.56;5062230;28;46557;-75
2021/11/23 10:33:49;;;;;;;;;4.00;4.00;;;;;21.10;37.19;102060.72;5061799;28;45470;-76
2021/11/23 10:36:16;;;;;;;;;4.75;4.75;;;;;21.11;37.68;102055.41;5062153;28;45371;-74
2021/11/23 10:38:42;;;;;;;;;5.75;5.75;;;;;21.12;37.19;102061.59;5062941;28;45312;-75
2021/11/23 10:41:09;;;;;;;;;6.50;5.00;;;;;21.10;37.56;102053.63;5044732;28;47773;-74
2021/11/23 10:43:37;;;;;;;;;5.50;4.25;;;;;21.09;37.11;102045.69;5062318;28;45370;-74
2021/11/23 10:46:03;;;;;;;;;3.50;3.50;;;;;21.08;37.28;102047.47;5029172;28;45325;-75
2021/11/23 10:48:28;;;;;;;;;4.50;3.00;;;;;21.07;37.31;102032.44;5060915;28;45543;-74
2021/11/23 10:51:10;;;;;;;;;5.00;4.00;;;;;21.07;37.39;102029.78;5061508;28;46424;-75
2021/11/23 10:53:36;;;;;;;;;3.00;3.00;;;;;21.06;37.43;102037.78;5061308;28;45283;-74
2021/11/23 10:56:12;;;;;;;;;4.00;4.00;;;;;21.05;37.53;102023.63;5045381;28;45487;-74
2021/11/23 10:58:38;;;;;;;;;4.75;4.25;;;;;21.05;37.46;102033.38;5055616;28;45469;-73
2021/11/23 11:01:05;;;;;;;;;5.00;4.00;;;;;21.04;37.02;102028.97;5041037;28;45426;-75
2021/11/23 11:03:31;;;;;;;;;4.50;3.50;;;;;21.02;36.80;102028.09;5050333;28;45327;-72
2021/11/23 11:05:56;;;;;;;;;3.50;3.50;;;;;21.01;37.47;102027.19;5044761;28;45214;-73
2021/11/23 11:08:22;;;;;;;;;3.25;3.25;;;;;21.04;37.18;102036.94;5061149;28;45449;-71
2021/11/23 11:10:48;;;;;;;;;4.00;3.25;;;;;21.05;37.09;102030.72;5061059;28;45943;-73